createdAt,value
2023-03-29T00:02:04.663Z,99872.75
2023-03-29T00:04:31.572Z,99881.69
2023-03-29T00:07:04.777Z,99889.56
2023-03-29T00:09:33.326Z,99888.91
2023-03-29T00:12:01.566Z,99894.66
2023-03-29T00:14:30.905Z,99897.97
2023-03-29T00:16:59.165Z,99899.94
2023-03-29T00:19:26.435Z,99902.06
2023-03-29T00:21:53.206Z,99906.88
2023-03-29T00:24:21.329Z,99911.66
2023-03-29T00:26:48.540Z,99907.53
2023-03-29T00:29:15.679Z,99910.47
2023-03-29T00:31:42.584Z,99905.34
2023-03-29T00:34:09.434Z,99898.53
2023-03-29T00:36:36.154Z,99902.69
2023-03-29T00:39:02.783Z,99913.03
2023-03-29T00:41:29.553Z,99918.25
2023-03-29T00:44:00.587Z,99919.81
2023-03-29T00:46:29.910Z,99913.06
2023-03-29T00:49:09.070Z,99916.69
2023-03-29T00:51:38.628Z,99915.63
2023-03-29T00:54:09.498Z,99910.69
2023-03-29T00:56:40.517Z,99900.44
2023-03-29T00:59:13.184Z,99924.97
2023-03-29T01:01:46.471Z,99926.25
2023-03-29T01:04:18.721Z,99931.53
2023-03-29T01:06:56.243Z,99934.38
2023-03-29T01:09:27.244Z,99932.53
2023-03-29T01:11:57.884Z,99939.03
2023-03-29T01:14:36.790Z,99927.34
2023-03-29T01:17:04.570Z,99940.34
2023-03-29T01:19:39.111Z,99938.97
2023-03-29T01:22:38.695Z,99945.53
2023-03-29T01:25:11.365Z,99947.38
2023-03-29T01:27:53.324Z,99953.56
2023-03-29T01:30:30.588Z,99951.47
2023-03-29T01:33:04.346Z,99952.91
2023-03-29T01:35:40.125Z,99956.22
2023-03-29T01:38:15.881Z,99963.31
2023-03-29T01:40:42.877Z,99969.81
2023-03-29T01:43:29.932Z,99972.59
2023-03-29T01:46:28.341Z,99966.38
2023-03-29T01:48:59.555Z,99942.22
2023-03-29T01:51:36.204Z,99961.22
2023-03-29T01:54:06.075Z,99961.47
2023-03-29T01:56:37.813Z,99969.88
2023-03-29T01:59:09.733Z,99971.72
2023-03-29T02:01:40.766Z,99954.03
2023-03-29T02:04:13.235Z,99976.75
2023-03-29T02:06:41.691Z,99974.63
2023-03-29T02:09:09.175Z,99965.59
2023-03-29T02:11:37.024Z,99970.81
2023-03-29T02:14:03.821Z,99950.06
2023-03-29T02:16:36.879Z,99978.19
2023-03-29T02:19:04.095Z,99975.84
2023-03-29T02:21:53.649Z,99984.94
2023-03-29T02:24:25.047Z,99990.50
2023-03-29T02:26:51.872Z,99996.97
2023-03-29T02:29:18.682Z,99989.22
2023-03-29T02:32:04.783Z,99996.88
2023-03-29T02:34:40.170Z,99996.41
2023-03-29T02:37:13.487Z,100002.94
2023-03-29T02:39:41.265Z,100007.59
2023-03-29T02:42:09.529Z,100005.44
2023-03-29T02:44:40.212Z,100018.38
2023-03-29T02:47:15.155Z,100020.97
2023-03-29T02:49:41.856Z,100017.63
2023-03-29T02:52:16.996Z,100025.59
2023-03-29T02:54:48.024Z,100037.06
2023-03-29T02:57:14.733Z,100034.28
2023-03-29T02:59:44.288Z,100038.03
2023-03-29T03:02:12.398Z,100044.84
2023-03-29T03:04:39.206Z,100033.41
2023-03-29T03:07:05.906Z,100052.34
2023-03-29T03:09:32.688Z,100045.03
2023-03-29T03:11:59.504Z,100054.03
2023-03-29T03:14:28.215Z,100050.47
2023-03-29T03:16:55.356Z,100054.03
2023-03-29T03:19:22.419Z,100047.31
2023-03-29T03:21:49.602Z,100048.66
2023-03-29T03:24:17.791Z,100051.44
2023-03-29T03:26:46.377Z,100057.84
2023-03-29T03:29:14.435Z,100051.03
2023-03-29T03:31:41.476Z,100047.47
2023-03-29T03:34:11.420Z,100062.63
2023-03-29T03:36:38.061Z,100051.94
2023-03-29T03:39:07.216Z,100067.22
2023-03-29T03:41:34.549Z,100067.88
2023-03-29T03:44:01.824Z,100071.38
2023-03-29T03:46:29.733Z,100046.31
2023-03-29T03:48:56.673Z,100059.44
2023-03-29T03:51:23.373Z,100084.50
2023-03-29T03:53:50.089Z,100092.91
2023-03-29T03:56:16.835Z,100095.34
2023-03-29T03:58:43.647Z,100097.09
2023-03-29T04:01:10.417Z,100098.22
2023-03-29T04:03:37.719Z,100108.34
2023-03-29T04:06:05.245Z,100102.31
2023-03-29T04:08:32.085Z,100108.97
2023-03-29T04:10:59.857Z,100122.13
2023-03-29T04:13:27.330Z,100122.28
2023-03-29T04:15:55.789Z,100107.38
2023-03-29T04:18:24.142Z,100125.31
2023-03-29T04:20:51.098Z,100122.97
2023-03-29T04:23:18.454Z,100129.31
2023-03-29T04:25:45.211Z,100129.72
2023-03-29T04:28:13.107Z,100130.84
2023-03-29T04:30:40.210Z,100141.31
2023-03-29T04:33:06.929Z,100144.63
2023-03-29T04:35:33.706Z,100147.91
2023-03-29T04:38:00.572Z,100133.81
2023-03-29T04:40:27.430Z,100156.19
2023-03-29T04:42:54.530Z,100158.91
2023-03-29T04:45:21.463Z,100161.06
2023-03-29T04:47:48.367Z,100137.09
2023-03-29T04:50:15.791Z,100162.81
2023-03-29T04:52:43.232Z,100167.59
2023-03-29T04:55:11.717Z,100152.25
2023-03-29T04:57:38.720Z,100170.47
2023-03-29T05:00:14.683Z,100179.03
2023-03-29T05:02:45.036Z,100176.66
2023-03-29T05:05:12.266Z,100171.22
2023-03-29T05:07:39.434Z,100176.91
2023-03-29T05:10:06.910Z,100172.06
2023-03-29T05:12:33.637Z,100178.22
2023-03-29T05:15:00.438Z,100176.00
2023-03-29T05:17:27.564Z,100174.56
2023-03-29T05:19:54.446Z,100181.94
2023-03-29T05:22:21.795Z,100177.91
2023-03-29T05:24:48.656Z,100182.16
2023-03-29T05:27:17.238Z,100157.38
2023-03-29T05:29:48.017Z,100182.47
2023-03-29T05:32:15.017Z,100192.25
2023-03-29T05:34:41.773Z,100195.25
2023-03-29T05:37:08.486Z,100191.31
2023-03-29T05:39:37.494Z,100167.78
2023-03-29T05:42:04.763Z,100178.53
2023-03-29T05:44:31.591Z,100188.97
2023-03-29T05:46:58.566Z,100189.91
2023-03-29T05:49:25.565Z,100195.56
2023-03-29T05:51:52.434Z,100193.94
2023-03-29T05:54:20.799Z,100202.06
2023-03-29T05:56:47.516Z,100195.44
2023-03-29T05:59:14.183Z,100198.41
2023-03-29T06:01:41.877Z,100194.63
2023-03-29T06:04:08.790Z,100193.09
2023-03-29T06:06:36.451Z,100204.69
2023-03-29T06:09:04.136Z,100207.16
2023-03-29T06:11:31.657Z,100203.84
2023-03-29T06:13:59.094Z,100205.75
2023-03-29T06:16:26.267Z,100218.31
2023-03-29T06:18:53.374Z,100214.88
2023-03-29T06:21:20.085Z,100212.22
2023-03-29T06:23:46.751Z,100218.19
2023-03-29T06:26:13.841Z,100211.59
2023-03-29T06:28:40.678Z,100220.00
2023-03-29T06:31:10.201Z,100226.41
2023-03-29T06:33:38.250Z,100223.31
2023-03-29T06:36:05.285Z,100232.75
2023-03-29T06:38:32.022Z,100229.59
2023-03-29T06:41:07.192Z,100227.63
2023-03-29T06:43:34.850Z,100240.50
2023-03-29T06:46:02.107Z,100226.25
2023-03-29T06:48:29.519Z,100239.59
2023-03-29T06:50:56.590Z,100241.44
2023-03-29T06:53:23.467Z,100239.06
2023-03-29T06:55:51.977Z,100179.84
2023-03-29T06:58:18.709Z,100237.50
2023-03-29T07:00:45.908Z,100234.91
2023-03-29T07:03:20.118Z,100241.09
2023-03-29T07:05:47.673Z,100245.97
2023-03-29T07:08:16.528Z,100246.13
2023-03-29T07:10:47.574Z,100242.47
2023-03-29T07:13:15.721Z,100243.50
2023-03-29T07:15:43.691Z,100239.31
2023-03-29T07:18:11.650Z,100242.63
2023-03-29T07:20:42.650Z,100254.22
2023-03-29T07:23:10.004Z,100246.06
2023-03-29T07:25:37.379Z,100245.44
2023-03-29T07:28:04.756Z,100249.91
2023-03-29T07:30:32.739Z,100242.97
2023-03-29T07:33:00.575Z,100220.06
2023-03-29T07:35:28.193Z,100253.22
2023-03-29T07:37:55.948Z,100235.78
2023-03-29T07:40:26.421Z,100236.56
2023-03-29T07:42:56.677Z,100225.03
2023-03-29T07:45:26.618Z,100249.31
2023-03-29T07:47:59.700Z,100250.22
2023-03-29T07:50:27.795Z,100248.69
2023-03-29T07:52:54.570Z,100249.13
2023-03-29T07:55:22.238Z,100252.47
2023-03-29T07:57:49.638Z,100231.88
2023-03-29T08:00:17.489Z,100227.75
2023-03-29T08:02:46.161Z,100244.78
2023-03-29T08:05:17.524Z,100250.69
2023-03-29T08:07:47.963Z,100252.09
2023-03-29T08:10:22.137Z,100256.78
2023-03-29T08:12:50.495Z,100254.91
2023-03-29T08:15:17.289Z,100238.44
2023-03-29T08:17:44.590Z,100226.97
2023-03-29T08:20:15.072Z,100242.94
2023-03-29T08:22:42.226Z,100249.53
2023-03-29T08:25:09.421Z,100253.38
2023-03-29T08:27:37.602Z,100253.78
2023-03-29T08:30:09.536Z,100242.91
2023-03-29T08:32:37.535Z,100236.78
2023-03-29T08:35:06.738Z,100252.41
2023-03-29T08:37:33.525Z,100251.19
2023-03-29T08:40:01.078Z,100243.59
2023-03-29T08:42:46.525Z,100255.16
2023-03-29T08:45:24.411Z,100248.84
2023-03-29T08:48:21.608Z,100255.63
2023-03-29T08:50:52.928Z,100245.81
2023-03-29T08:54:04.133Z,100244.25
2023-03-29T08:56:34.884Z,100247.34
2023-03-29T08:59:02.373Z,100235.84
2023-03-29T09:01:35.483Z,100254.63
2023-03-29T09:04:21.007Z,100249.88
2023-03-29T09:06:47.800Z,100249.56
2023-03-29T09:09:21.847Z,100242.81
2023-03-29T09:12:09.797Z,100252.22
2023-03-29T09:14:51.370Z,100242.97
2023-03-29T09:17:36.178Z,100252.41
2023-03-29T09:20:24.012Z,100254.69
2023-03-29T09:23:15.637Z,100260.56
2023-03-29T09:25:54.268Z,100243.59
2023-03-29T09:28:37.115Z,100242.31
2023-03-29T09:31:07.589Z,100241.69
2023-03-29T09:33:43.328Z,100247.28
2023-03-29T09:36:23.751Z,100233.09
2023-03-29T09:38:54.566Z,100226.19
2023-03-29T09:41:46.662Z,100224.44
2023-03-29T09:44:30.186Z,100224.44
2023-03-29T09:47:07.706Z,100227.22
2023-03-29T09:49:41.397Z,100220.00
2023-03-29T09:52:17.074Z,100226.03
2023-03-29T09:54:44.427Z,100216.41
2023-03-29T09:57:17.396Z,100220.09
2023-03-29T09:59:50.065Z,100202.03
2023-03-29T10:02:20.427Z,100204.41
2023-03-29T10:04:55.380Z,100195.81
2023-03-29T10:07:22.797Z,100195.88
2023-03-29T10:09:52.065Z,100184.22
2023-03-29T10:12:20.071Z,100174.22
2023-03-29T10:14:53.625Z,100172.69
2023-03-29T10:17:28.142Z,100170.47
2023-03-29T10:20:03.875Z,100174.81
2023-03-29T10:22:37.874Z,100185.00
2023-03-29T10:25:12.802Z,100183.63
2023-03-29T10:27:41.898Z,100196.16
2023-03-29T10:30:13.200Z,100191.97
2023-03-29T10:32:41.407Z,100193.28
2023-03-29T10:35:25.099Z,100201.94
2023-03-29T10:37:55.262Z,100206.91
2023-03-29T10:40:30.879Z,100196.63
2023-03-29T10:43:12.274Z,100199.66
2023-03-29T10:45:40.265Z,100188.16
2023-03-29T10:48:11.730Z,100192.50
2023-03-29T10:50:38.644Z,100191.56
2023-03-29T10:53:14.737Z,100199.53
2023-03-29T10:55:54.514Z,100193.41
2023-03-29T10:59:01.976Z,100210.94
2023-03-29T11:01:46.793Z,100199.94
2023-03-29T11:04:13.513Z,100193.31
2023-03-29T11:06:52.656Z,100194.34
2023-03-29T11:09:37.939Z,100206.09
2023-03-29T11:12:15.953Z,100203.16
2023-03-29T11:15:17.240Z,100206.00
2023-03-29T11:17:59.053Z,100207.00
2023-03-29T11:20:42.059Z,100216.47
2023-03-29T11:23:40.381Z,100205.59
2023-03-29T11:26:30.019Z,100201.06
2023-03-29T11:29:12.085Z,100201.56
2023-03-29T11:32:05.694Z,100204.19
2023-03-29T11:34:44.977Z,100208.44
2023-03-29T11:37:35.799Z,100205.88
2023-03-29T11:40:08.363Z,100200.00
2023-03-29T11:42:39.165Z,100206.78
2023-03-29T11:45:12.133Z,100198.31
2023-03-29T11:47:43.032Z,100203.31
2023-03-29T11:50:19.833Z,100197.47
2023-03-29T11:52:54.260Z,100194.03
2023-03-29T11:55:39.431Z,100197.09
2023-03-29T11:58:08.868Z,100192.69
2023-03-29T12:00:40.549Z,100194.75
2023-03-29T12:03:14.396Z,100195.34
2023-03-29T12:05:57.170Z,100184.88
2023-03-29T12:09:08.658Z,100177.41
2023-03-29T12:11:41.775Z,100184.00
2023-03-29T12:14:21.389Z,100178.13
2023-03-29T12:17:01.327Z,100181.44
2023-03-29T12:19:43.297Z,100171.53
2023-03-29T12:22:10.674Z,100168.50
2023-03-29T12:24:41.734Z,100174.59
2023-03-29T12:27:20.827Z,100175.75
2023-03-29T12:30:22.186Z,100158.91
2023-03-29T12:32:58.903Z,100184.16
2023-03-29T12:35:52.565Z,100184.03
2023-03-29T12:38:22.126Z,100195.09
2023-03-29T12:40:55.935Z,100187.50
2023-03-29T12:43:40.626Z,100178.03
2023-03-29T12:46:14.756Z,100182.16
2023-03-29T12:48:42.838Z,100181.59
2023-03-29T12:51:17.248Z,100186.31
2023-03-29T12:53:55.735Z,100180.44
2023-03-29T12:56:34.964Z,100165.31
2023-03-29T12:59:10.814Z,100188.16
2023-03-29T13:01:41.481Z,100189.53
2023-03-29T13:04:21.672Z,100191.84
2023-03-29T13:07:05.806Z,100169.88
2023-03-29T13:09:49.005Z,100169.66
2023-03-29T13:12:15.905Z,100185.66
2023-03-29T13:14:51.966Z,100193.72
2023-03-29T13:17:38.660Z,100182.22
2023-03-29T13:20:32.344Z,100186.06
2023-03-29T13:23:04.902Z,100178.47
2023-03-29T13:25:46.644Z,100182.13
2023-03-29T13:28:28.313Z,100188.75
2023-03-29T13:30:59.623Z,100191.56
2023-03-29T13:33:26.327Z,100179.03
2023-03-29T13:36:03.772Z,100177.88
2023-03-29T13:38:35.504Z,100174.56
2023-03-29T13:41:12.324Z,100179.75
2023-03-29T13:43:42.209Z,100180.09
2023-03-29T13:46:44.281Z,100180.19
2023-03-29T13:49:29.527Z,100185.13
2023-03-29T13:52:17.236Z,100189.53
2023-03-29T13:55:10.695Z,100183.75
2023-03-29T13:58:02.782Z,100183.47
2023-03-29T14:00:38.890Z,100174.63
2023-03-29T14:03:09.715Z,100191.44
2023-03-29T14:05:40.089Z,100183.13
2023-03-29T14:08:16.998Z,100177.13
2023-03-29T14:10:45.508Z,100182.06
2023-03-29T14:13:18.327Z,100178.19
2023-03-29T14:15:50.702Z,100187.50
2023-03-29T14:18:22.579Z,100197.44
2023-03-29T14:20:54.975Z,100184.13
2023-03-29T14:23:25.292Z,100193.91
2023-03-29T14:25:52.092Z,100206.28
2023-03-29T14:28:29.009Z,100203.78
2023-03-29T14:30:56.719Z,100180.16
2023-03-29T14:33:33.564Z,100189.53
2023-03-29T14:36:05.131Z,100209.44
2023-03-29T14:38:32.503Z,100187.22
2023-03-29T14:41:00.974Z,100197.00
2023-03-29T14:43:31.119Z,100195.22
2023-03-29T14:46:00.416Z,100200.66
2023-03-29T14:48:28.145Z,100204.69
2023-03-29T14:50:55.126Z,100202.66
2023-03-29T14:53:23.763Z,100204.09
2023-03-29T14:55:53.174Z,100214.03
2023-03-29T14:58:29.307Z,100215.34
2023-03-29T15:00:56.104Z,100219.72
2023-03-29T15:03:26.415Z,100197.91
2023-03-29T15:06:02.902Z,100198.50
2023-03-29T15:08:36.531Z,100204.66
2023-03-29T15:11:10.858Z,100202.69
2023-03-29T15:13:41.745Z,100206.22
2023-03-29T15:16:12.083Z,100214.47
2023-03-29T15:18:41.839Z,100210.03
2023-03-29T15:21:10.784Z,100209.72
2023-03-29T15:23:42.214Z,100219.91
2023-03-29T15:26:14.117Z,100221.63
2023-03-29T15:28:55.853Z,100227.31
2023-03-29T15:31:32.659Z,100227.84
2023-03-29T15:34:09.543Z,100214.81
2023-03-29T15:36:42.312Z,100199.22
2023-03-29T15:39:12.643Z,100228.81
2023-03-29T15:41:40.003Z,100220.88
2023-03-29T15:44:07.414Z,100219.09
2023-03-29T15:46:34.223Z,100227.38
2023-03-29T15:49:00.976Z,100226.38
2023-03-29T15:51:27.817Z,100226.16
2023-03-29T15:53:54.573Z,100231.09
2023-03-29T15:56:23.003Z,100233.66
2023-03-29T15:58:49.984Z,100224.63
2023-03-29T16:01:33.977Z,100237.44
2023-03-29T16:04:02.712Z,100230.63
2023-03-29T16:06:29.470Z,100237.78
2023-03-29T16:08:57.455Z,100237.81
2023-03-29T16:11:24.650Z,100222.69
2023-03-29T16:13:51.689Z,100238.19
2023-03-29T16:16:18.538Z,100255.00
2023-03-29T16:18:45.845Z,100249.63
2023-03-29T16:21:18.234Z,100249.84
2023-03-29T16:23:48.121Z,100242.47
2023-03-29T16:26:16.725Z,100253.41
2023-03-29T16:28:43.785Z,100248.97
2023-03-29T16:31:12.477Z,100261.09
2023-03-29T16:33:40.842Z,100255.75
2023-03-29T16:36:08.360Z,100263.34
2023-03-29T16:38:35.525Z,100256.97
2023-03-29T16:41:02.622Z,100241.28
2023-03-29T16:43:29.328Z,100264.22
2023-03-29T16:45:57.091Z,100266.91
2023-03-29T16:48:24.058Z,100263.13
2023-03-29T16:50:51.087Z,100272.69
2023-03-29T16:53:18.801Z,100267.81
2023-03-29T16:55:46.819Z,100278.59
2023-03-29T16:58:13.633Z,100279.75
2023-03-29T17:00:40.944Z,100271.16
2023-03-29T17:03:08.105Z,100286.53
2023-03-29T17:05:41.320Z,100286.53
2023-03-29T17:08:10.084Z,100289.03
2023-03-29T17:10:39.940Z,100296.47
2023-03-29T17:13:06.881Z,100271.69
2023-03-29T17:15:34.067Z,100286.91
2023-03-29T17:18:01.471Z,100275.66
2023-03-29T17:20:28.286Z,100299.78
2023-03-29T17:22:56.114Z,100299.13
2023-03-29T17:25:23.945Z,100314.78
2023-03-29T17:27:51.164Z,100293.47
2023-03-29T17:30:18.228Z,100319.72
2023-03-29T17:32:45.896Z,100312.13
2023-03-29T17:35:13.379Z,100318.41
2023-03-29T17:37:42.011Z,100321.16
2023-03-29T17:40:10.528Z,100322.69
2023-03-29T17:42:37.397Z,100328.13
2023-03-29T17:45:04.526Z,100338.94
2023-03-29T17:47:31.259Z,100335.50
2023-03-29T17:49:58.051Z,100311.00
2023-03-29T17:52:24.763Z,100346.84
2023-03-29T17:54:51.482Z,100343.19
2023-03-29T17:57:18.275Z,100344.19
2023-03-29T17:59:44.972Z,100353.25
2023-03-29T18:02:17.829Z,100335.63
2023-03-29T18:04:44.850Z,100347.91
2023-03-29T18:07:11.833Z,100358.69
2023-03-29T18:09:38.546Z,100360.97
2023-03-29T18:12:05.622Z,100359.19
2023-03-29T18:14:32.446Z,100350.34
2023-03-29T18:16:59.303Z,100355.09
2023-03-29T18:19:26.211Z,100362.69
2023-03-29T18:21:53.119Z,100363.44
2023-03-29T18:24:19.860Z,100359.44
2023-03-29T18:26:46.607Z,100358.31
2023-03-29T18:29:13.679Z,100354.16
2023-03-29T18:31:40.645Z,100355.41
2023-03-29T18:34:07.471Z,100358.63
2023-03-29T18:36:34.602Z,100365.66
2023-03-29T18:39:05.846Z,100364.22
2023-03-29T18:41:34.197Z,100366.25
2023-03-29T18:44:01.094Z,100360.31
2023-03-29T18:46:31.166Z,100367.00
2023-03-29T18:48:58.818Z,100365.88
2023-03-29T18:51:28.857Z,100362.38
2023-03-29T18:53:56.096Z,100373.72
2023-03-29T18:56:23.398Z,100374.03
2023-03-29T18:58:50.577Z,100372.50
2023-03-29T19:01:17.749Z,100377.03
2023-03-29T19:03:44.786Z,100371.28
2023-03-29T19:06:11.966Z,100365.97
2023-03-29T19:08:41.232Z,100385.03
2023-03-29T19:11:10.734Z,100377.34
2023-03-29T19:13:37.802Z,100376.50
2023-03-29T19:16:05.243Z,100383.38
2023-03-29T19:18:32.518Z,100380.16
2023-03-29T19:20:59.216Z,100390.41
2023-03-29T19:23:28.246Z,100385.78
2023-03-29T19:25:57.448Z,100390.78
2023-03-29T19:28:24.875Z,100384.06
2023-03-29T19:30:51.791Z,100380.38
2023-03-29T19:33:18.711Z,100389.50
2023-03-29T19:35:45.778Z,100395.06
2023-03-29T19:38:12.721Z,100371.88
2023-03-29T19:40:39.426Z,100395.31
2023-03-29T19:43:06.309Z,100399.03
2023-03-29T19:45:33.014Z,100394.47
2023-03-29T19:48:03.167Z,100399.72
2023-03-29T19:50:31.675Z,100402.97
2023-03-29T19:52:58.631Z,100401.91
2023-03-29T19:55:26.544Z,100386.81
2023-03-29T19:57:53.209Z,100403.06
2023-03-29T20:00:24.547Z,100397.31
2023-03-29T20:02:55.703Z,100408.47
2023-03-29T20:05:24.111Z,100403.97
2023-03-29T20:07:50.835Z,100410.97
2023-03-29T20:10:17.596Z,100408.78
2023-03-29T20:12:44.330Z,100411.19
2023-03-29T20:15:11.278Z,100410.28
2023-03-29T20:20:12.850Z,100411.91
2023-03-29T20:22:42.260Z,100403.50
2023-03-29T20:25:09.533Z,100402.00
2023-03-29T20:27:36.268Z,100416.25
2023-03-29T20:30:03.964Z,100407.75
2023-03-29T20:32:30.922Z,100411.66
2023-03-29T20:34:57.731Z,100415.53
2023-03-29T20:37:25.996Z,100388.53
2023-03-29T20:39:53.248Z,100403.47
2023-03-29T20:42:24.522Z,100414.53
2023-03-29T20:44:51.413Z,100402.44
2023-03-29T20:47:19.305Z,100412.00
2023-03-29T20:49:46.427Z,100390.16
2023-03-29T20:52:17.275Z,100407.97
2023-03-29T20:54:45.400Z,100411.16
2023-03-29T20:57:15.904Z,100417.06
2023-03-29T20:59:43.886Z,100416.63
2023-03-29T21:02:21.181Z,100414.38
2023-03-29T21:04:52.227Z,100422.31
2023-03-29T21:07:20.225Z,100418.50
2023-03-29T21:09:50.457Z,100407.78
2023-03-29T21:12:17.720Z,100419.34
2023-03-29T21:14:44.902Z,100417.34
2023-03-29T21:17:11.668Z,100417.56
2023-03-29T21:19:39.540Z,100409.78
2023-03-29T21:22:06.806Z,100432.44
2023-03-29T21:24:33.904Z,100441.38
2023-03-29T21:27:00.741Z,100438.91
2023-03-29T21:29:27.860Z,100437.06
2023-03-29T21:31:55.007Z,100447.28
2023-03-29T21:34:22.468Z,100420.34
2023-03-29T21:36:49.493Z,100449.31
2023-03-29T21:39:16.374Z,100451.66
2023-03-29T21:41:43.187Z,100440.66
2023-03-29T21:44:09.941Z,100449.16
2023-03-29T21:46:36.674Z,100439.22
2023-03-29T21:49:03.488Z,100448.38
2023-03-29T21:51:30.248Z,100448.69
2023-03-29T21:53:56.990Z,100441.97
2023-03-29T21:56:23.722Z,100446.81
2023-03-29T21:58:51.065Z,100424.22
2023-03-29T22:01:17.984Z,100419.59
2023-03-29T22:03:44.830Z,100447.50
2023-03-29T22:06:13.908Z,100441.69
2023-03-29T22:08:40.906Z,100443.09
2023-03-29T22:11:11.076Z,100448.00
2023-03-29T22:13:37.949Z,100405.22
2023-03-29T22:16:05.449Z,100455.47
2023-03-29T22:18:44.176Z,100447.88
2023-03-29T22:21:22.538Z,100457.09
2023-03-29T22:23:55.085Z,100456.03
2023-03-29T22:26:23.878Z,100457.84
2023-03-29T22:28:51.761Z,100438.84
2023-03-29T22:31:20.736Z,100451.91
2023-03-29T22:33:48.085Z,100454.28
2023-03-29T22:36:23.420Z,100457.59
2023-03-29T22:38:51.522Z,100456.97
2023-03-29T22:41:19.629Z,100454.88
2023-03-29T22:43:47.079Z,100459.72
2023-03-29T22:46:14.436Z,100445.66
2023-03-29T22:48:41.556Z,100459.47
2023-03-29T22:51:08.453Z,100467.69
2023-03-29T22:53:35.369Z,100451.53
2023-03-29T22:56:02.306Z,100471.09
2023-03-29T22:58:31.906Z,100463.38
2023-03-29T23:00:58.901Z,100466.34
2023-03-29T23:03:25.660Z,100468.28
2023-03-29T23:05:55.223Z,100472.41
2023-03-29T23:08:23.470Z,100478.16
2023-03-29T23:10:50.385Z,100475.19
2023-03-29T23:13:24.199Z,100476.59
2023-03-29T23:15:52.082Z,100467.69
2023-03-29T23:18:21.139Z,100475.53
2023-03-29T23:20:49.663Z,100473.13
2023-03-29T23:23:17.318Z,100473.25
2023-03-29T23:25:45.801Z,100474.69
2023-03-29T23:28:13.230Z,100467.94
2023-03-29T23:30:40.960Z,100470.44
2023-03-29T23:33:07.870Z,100456.38
2023-03-29T23:35:34.802Z,100480.88
2023-03-29T23:38:01.804Z,100479.66
2023-03-29T23:40:28.821Z,100471.16
2023-03-29T23:42:59.693Z,100475.28
2023-03-29T23:45:28.115Z,100474.69
2023-03-29T23:47:55.357Z,100480.63
2023-03-29T23:50:22.769Z,100481.59
2023-03-29T23:52:51.729Z,100473.03
2023-03-29T23:55:18.946Z,100470.19
2023-03-29T23:57:45.842Z,100475.88
